Time;durP1;ratioP1;P1;durP2;ratioP2;P2;SDS_P1;SDS_P2;PMS_P1;PMS_P2;Temp;Humidity;BMP_temperature;BMP_pressure;BME280_temperature;BME280_humidity;BME280_pressure;Samples;Min_cycle;Max_cycle;Signal;HPM_P1;HPM_P2
2024/01/18 00:02:17;;;;;;;48.55;31.85;;;;;;;-146.58;100.00;69501.63;5033054;28;20017;-71
2024/01/18 00:04:42;;;;;;;51.90;32.72;;;;;;;-146.58;100.00;69501.63;5031865;28;20044;-71
2024/01/18 00:07:07;;;;;;;41.67;31.67;;;;;;;-146.58;100.00;69501.63;5033110;28;20381;-62
2024/01/18 00:09:33;;;;;;;54.97;35.60;;;;;;;-146.58;100.00;69501.63;5031113;28;20065;-63
2024/01/18 00:11:58;;;;;;;51.85;36.55;;;;;;;-146.58;100.00;69501.63;5033305;28;20026;-71
2024/01/18 00:14:23;;;;;;;37.13;29.42;;;;;;;-146.58;100.00;69501.63;5031511;28;20037;-70
2024/01/18 00:16:49;;;;;;;46.17;29.90;;;;;;;-146.58;100.00;69501.63;5032932;28;20021;-70
2024/01/18 00:19:14;;;;;;;44.05;30.73;;;;;;;-146.58;100.00;69501.63;5032952;28;20022;-70
2024/01/18 00:21:40;;;;;;;46.13;32.88;;;;;;;-146.58;100.00;69501.63;5031084;28;20099;-70
2024/01/18 00:24:06;;;;;;;39.00;30.13;;;;;;;-146.58;100.00;69501.63;5033208;28;20033;-70
2024/01/18 00:26:31;;;;;;;43.63;35.15;;;;;;;-146.58;100.00;69501.63;5031381;28;20038;-70
2024/01/18 00:28:57;;;;;;;41.85;33.30;;;;;;;-146.58;100.00;69501.63;5031088;28;20048;-70
2024/01/18 00:31:22;;;;;;;57.55;35.03;;;;;;;-146.58;100.00;69501.63;5032637;28;20033;-70
2024/01/18 00:33:48;;;;;;;37.85;29.95;;;;;;;-146.58;100.00;69501.63;5031144;28;20572;-70
2024/01/18 00:36:13;;;;;;;50.63;33.13;;;;;;;-146.58;100.00;69501.63;5032532;28;20544;-70
2024/01/18 00:38:38;;;;;;;43.63;32.28;;;;;;;-146.58;100.00;69501.63;5030855;28;20416;-69
2024/01/18 00:41:04;;;;;;;44.80;31.23;;;;;;;-146.58;100.00;69501.63;5032773;28;20424;-70
2024/01/18 00:43:29;;;;;;;38.08;29.17;;;;;;;-146.58;100.00;69501.63;5030893;28;20025;-70
2024/01/18 00:45:55;;;;;;;39.90;30.55;;;;;;;-146.58;100.00;69501.63;5032393;28;20026;-69
2024/01/18 00:48:20;;;;;;;38.25;29.15;;;;;;;-146.58;100.00;69501.63;5032383;28;20026;-69
2024/01/18 00:50:45;;;;;;;41.67;29.90;;;;;;;-146.58;100.00;69501.63;5030488;28;20037;-69
2024/01/18 00:53:11;;;;;;;45.60;35.63;;;;;;;-146.58;100.00;69501.63;5032558;28;20029;-69
2024/01/18 00:55:36;;;;;;;41.35;31.10;;;;;;;-146.58;100.00;69501.63;5030513;28;20421;-69
2024/01/18 00:58:02;;;;;;;52.25;31.75;;;;;;;-146.58;100.00;69501.63;5032177;28;20029;-69
2024/01/18 01:00:27;;;;;;;38.60;30.25;;;;;;;-146.58;100.00;69501.63;5030832;28;20568;-70
2024/01/18 01:02:53;;;;;;;51.45;35.45;;;;;;;-146.58;100.00;69501.63;5031981;28;20033;-70
2024/01/18 01:05:18;;;;;;;41.72;32.10;;;;;;;-146.58;100.00;69501.63;5030505;28;20045;-70
2024/01/18 01:07:44;;;;;;;44.97;32.88;;;;;;;-146.58;100.00;69501.63;5031925;28;20025;-70
2024/01/18 01:10:10;;;;;;;49.38;33.55;;;;;;;-146.58;100.00;69501.63;5030699;28;20048;-70
2024/01/18 01:12:35;;;;;;;46.33;31.58;;;;;;;-146.58;100.00;69501.63;5031439;28;20048;-70
2024/01/18 01:15:00;;;;;;;41.38;33.35;;;;;;;-146.58;100.00;69501.63;5030465;28;20386;-67
2024/01/18 01:17:26;;;;;;;41.88;32.60;;;;;;;-146.58;100.00;69501.63;5032167;28;20095;-68
2024/01/18 01:19:51;;;;;;;43.08;33.85;;;;;;;-146.58;100.00;69501.63;5029877;28;20033;-67
2024/01/18 01:22:17;;;;;;;50.38;34.53;;;;;;;-146.58;100.00;69501.63;5031851;28;20472;-68
2024/01/18 01:24:42;;;;;;;41.65;32.92;;;;;;;-146.58;100.00;69501.63;5030179;28;20065;-67
2024/01/18 01:27:08;;;;;;;42.85;32.72;;;;;;;-146.58;100.00;69501.63;5031580;28;20029;-67
2024/01/18 01:29:34;;;;;;;44.85;30.17;;;;;;;-146.58;100.00;69501.63;5030051;28;20144;-68
2024/01/18 01:31:59;;;;;;;47.20;35.05;;;;;;;-146.58;100.00;69501.63;5031768;28;20013;-67
2024/01/18 01:34:25;;;;;;;45.08;33.08;;;;;;;-146.58;100.00;69501.63;5029904;28;20497;-68
2024/01/18 01:36:51;;;;;;;44.45;34.00;;;;;;;-146.58;100.00;69501.63;5031284;28;20036;-68
2024/01/18 01:39:17;;;;;;;45.40;34.13;;;;;;;-146.58;100.00;69501.63;5030201;28;20044;-69
2024/01/18 01:41:42;;;;;;;45.10;37.00;;;;;;;-146.58;100.00;69501.63;5031113;28;20029;-64
2024/01/18 01:44:08;;;;;;;53.63;35.90;;;;;;;-146.58;100.00;69501.63;5030162;28;20120;-67
2024/01/18 01:46:34;;;;;;;50.20;35.60;;;;;;;-146.58;100.00;69501.63;5031008;28;20555;-67
2024/01/18 01:49:02;;;;;;;53.65;38.63;;;;;;;-146.58;100.00;69501.63;5029113;28;20033;-66
2024/01/18 01:51:33;;;;;;;51.75;37.35;;;;;;;-146.58;100.00;69501.63;5031418;28;20044;-67
2024/01/18 01:53:59;;;;;;;57.45;36.70;;;;;;;-146.58;100.00;69501.63;5029796;28;20049;-67
2024/01/18 01:56:25;;;;;;;45.70;36.85;;;;;;;-146.58;100.00;69501.63;5031145;28;20037;-67
2024/01/18 01:58:50;;;;;;;48.60;34.22;;;;;;;-146.58;100.00;69501.63;5029563;28;20033;-67
2024/01/18 02:01:16;;;;;;;57.42;40.97;;;;;;;-146.58;100.00;69501.63;5031291;28;20030;-67
2024/01/18 02:03:42;;;;;;;65.53;42.63;;;;;;;-146.58;100.00;69501.63;5029155;28;20029;-67
2024/01/18 02:06:08;;;;;;;61.95;40.88;;;;;;;-146.58;100.00;69501.63;5030870;28;20408;-68
2024/01/18 02:08:33;;;;;;;60.72;44.00;;;;;;;-146.58;100.00;69501.63;5028131;28;20378;-68
2024/01/18 02:10:59;;;;;;;57.17;40.72;;;;;;;-146.58;100.00;69501.63;5030864;28;20029;-69
2024/01/18 02:13:25;;;;;;;55.33;39.22;;;;;;;-146.58;100.00;69501.63;5029508;28;20113;-68
2024/01/18 02:15:50;;;;;;;67.47;41.33;;;;;;;-146.58;100.00;69501.63;5031042;28;20438;-68
2024/01/18 02:18:16;;;;;;;59.47;43.40;;;;;;;-146.58;100.00;69501.63;5030733;28;20672;-68
2024/01/18 02:20:41;;;;;;;55.95;37.35;;;;;;;-146.58;100.00;69501.63;5029257;28;20040;-67
2024/01/18 02:23:09;;;;;;;55.85;45.63;;;;;;;-146.58;100.00;69501.63;5030829;28;20477;-68
2024/01/18 02:25:35;;;;;;;52.88;41.58;;;;;;;-146.58;100.00;69501.63;5028913;28;20045;-69
2024/01/18 02:28:01;;;;;;;56.95;41.78;;;;;;;-146.58;100.00;69501.63;5030740;28;20025;-68
2024/01/18 02:30:26;;;;;;;50.85;39.75;;;;;;;-146.58;100.00;69501.63;5029506;28;20048;-67
2024/01/18 02:32:51;;;;;;;58.85;41.45;;;;;;;-146.58;100.00;69501.63;5030530;28;20024;-68
2024/01/18 02:35:17;;;;;;;54.50;39.63;;;;;;;-146.58;100.00;69501.63;5029154;28;20072;-68
2024/01/18 02:37:43;;;;;;;60.20;42.15;;;;;;;-146.58;100.00;69501.63;5030461;28;20554;-68
2024/01/18 02:40:09;;;;;;;60.70;39.95;;;;;;;-146.58;100.00;69501.63;5029325;28;20416;-68
2024/01/18 02:42:34;;;;;;;54.05;40.95;;;;;;;-146.58;100.00;69501.63;5030146;28;20030;-67
2024/01/18 02:45:03;;;;;;;56.70;41.80;;;;;;;-146.58;100.00;69501.63;5029356;28;20068;-68
2024/01/18 02:47:29;;;;;;;60.67;39.95;;;;;;;-146.58;100.00;69501.63;5030895;28;20481;-67
2024/01/18 02:49:57;;;;;;;58.60;42.85;;;;;;;-146.58;100.00;69501.63;5028574;28;20052;-67
2024/01/18 02:52:22;;;;;;;46.00;31.42;;;;;;;-146.58;100.00;69501.63;5030570;28;20029;-67
2024/01/18 02:54:48;;;;;;;56.15;40.70;;;;;;;-146.58;100.00;69501.63;5029005;28;20042;-67
2024/01/18 02:57:13;;;;;;;67.10;46.53;;;;;;;-146.58;100.00;69501.63;5030071;28;20037;-67
2024/01/18 02:59:39;;;;;;;49.53;38.17;;;;;;;-146.58;100.00;69501.63;5029993;28;20061;-67
2024/01/18 03:02:04;;;;;;;58.70;40.50;;;;;;;-146.58;100.00;69501.63;5034384;28;20377;-67
2024/01/18 03:04:31;;;;;;;52.05;38.80;;;;;;;-146.58;100.00;69501.63;5032660;28;20032;-67
2024/01/18 03:06:56;;;;;;;55.40;38.15;;;;;;;-146.58;100.00;69501.63;5033338;28;20408;-67
2024/01/18 03:09:22;;;;;;;50.72;36.70;;;;;;;-146.58;100.00;69501.63;5033061;28;20021;-67
2024/01/18 03:11:47;;;;;;;45.97;33.95;;;;;;;-146.58;100.00;69501.63;5033695;28;20091;-67
2024/01/18 03:14:13;;;;;;;42.95;34.03;;;;;;;-146.58;100.00;69501.63;5034176;28;20040;-67
2024/01/18 03:16:42;;;;;;;54.20;36.85;;;;;;;-146.58;100.00;69501.63;5032442;28;20412;-67
2024/01/18 03:19:12;;;;;;;48.22;35.63;;;;;;;-146.58;100.00;69501.63;5034001;28;20489;-67
2024/01/18 03:21:38;;;;;;;46.47;32.42;;;;;;;-146.58;100.00;69501.63;5032568;28;20050;-67
2024/01/18 03:24:03;;;;;;;53.60;35.85;;;;;;;-146.58;100.00;69501.63;5033978;28;20082;-67
2024/01/18 03:26:29;;;;;;;52.13;38.55;;;;;;;-146.58;100.00;69501.63;5032251;28;20127;-66
2024/01/18 03:28:55;;;;;;;54.90;38.67;;;;;;;-146.58;100.00;69501.63;5032429;28;20034;-66
2024/01/18 03:31:20;;;;;;;54.30;37.20;;;;;;;-146.58;100.00;69501.63;5034032;28;20505;-66
2024/01/18 03:33:45;;;;;;;53.72;40.17;;;;;;;-146.58;100.00;69501.63;5031764;28;20045;-67
2024/01/18 03:36:11;;;;;;;61.90;39.53;;;;;;;-146.58;100.00;69501.63;5033848;28;20047;-67
2024/01/18 03:38:36;;;;;;;59.28;42.50;;;;;;;-146.58;100.00;69501.63;5032243;28;20018;-62
2024/01/18 03:41:02;;;;;;;63.33;38.60;;;;;;;-146.58;100.00;69501.63;5032099;28;20485;-66
2024/01/18 03:43:27;;;;;;;54.47;41.15;;;;;;;-146.58;100.00;69501.63;5032576;28;20021;-67
2024/01/18 03:45:52;;;;;;;53.05;38.80;;;;;;;-146.58;100.00;69501.63;5033622;28;20033;-68
2024/01/18 03:48:18;;;;;;;58.47;38.45;;;;;;;-146.58;100.00;69501.63;5033145;28;20381;-67
2024/01/18 03:50:43;;;;;;;56.70;42.08;;;;;;;-146.58;100.00;69501.63;5032045;28;20041;-67
2024/01/18 03:53:08;;;;;;;54.47;42.53;;;;;;;-146.58;100.00;69501.63;5033488;28;20021;-67
2024/01/18 03:55:34;;;;;;;60.97;41.97;;;;;;;-146.58;100.00;69501.63;5031313;28;20045;-67
2024/01/18 03:57:59;;;;;;;56.95;40.13;;;;;;;-146.58;100.00;69501.63;5033294;28;20473;-67
2024/01/18 04:00:25;;;;;;;59.72;41.72;;;;;;;-146.58;100.00;69501.63;5031972;28;20038;-67
2024/01/18 04:02:51;;;;;;;62.38;42.30;;;;;;;-146.58;100.00;69501.63;5032874;28;20021;-65
2024/01/18 04:05:16;;;;;;;54.55;38.75;;;;;;;-146.58;100.00;69501.63;5032051;28;20131;-65
2024/01/18 04:07:42;;;;;;;60.90;42.17;;;;;;;-146.58;100.00;69501.63;5033070;28;20017;-65
2024/01/18 04:10:10;;;;;;;53.55;39.53;;;;;;;-146.58;100.00;69501.63;5031040;28;20046;-65
2024/01/18 04:12:36;;;;;;;62.90;41.42;;;;;;;-146.58;100.00;69501.63;5033098;28;20021;-66
2024/01/18 04:15:02;;;;;;;59.42;39.55;;;;;;;-146.58;100.00;69501.63;5031700;28;20042;-64
2024/01/18 04:17:28;;;;;;;57.38;41.00;;;;;;;-146.58;100.00;69501.63;5032941;28;20060;-64
2024/01/18 04:19:53;;;;;;;62.58;43.20;;;;;;;-146.58;100.00;69501.63;5031418;28;20034;-64
2024/01/18 04:22:19;;;;;;;66.28;41.20;;;;;;;-146.58;100.00;69501.63;5032951;28;20025;-64
2024/01/18 04:24:45;;;;;;;65.75;42.97;;;;;;;-146.58;100.00;69501.63;5029763;28;20041;-64
2024/01/18 04:27:10;;;;;;;69.55;48.45;;;;;;;-146.58;100.00;69501.63;5032999;28;20033;-64
2024/01/18 04:29:36;;;;;;;63.80;44.65;;;;;;;-146.58;100.00;69501.63;5031082;28;20116;-64
2024/01/18 04:32:01;;;;;;;66.53;44.35;;;;;;;-146.58;100.00;69501.63;5032534;28;20033;-63
2024/01/18 04:34:27;;;;;;;74.40;44.45;;;;;;;-146.58;100.00;69501.63;5031541;28;20048;-65
2024/01/18 04:36:52;;;;;;;61.17;43.92;;;;;;;-146.58;100.00;69501.63;5032430;28;20032;-66
2024/01/18 04:39:17;;;;;;;61.88;43.08;;;;;;;-146.58;100.00;69501.63;5031065;28;20037;-66
2024/01/18 04:41:43;;;;;;;65.07;41.20;;;;;;;-146.58;100.00;69501.63;5032549;28;20036;-66
2024/01/18 04:44:08;;;;;;;71.57;46.25;;;;;;;-146.58;100.00;69501.63;5031268;28;20037;-65
2024/01/18 04:46:34;;;;;;;67.07;44.80;;;;;;;-146.58;100.00;69501.63;5032187;28;20018;-64
2024/01/18 04:48:59;;;;;;;68.72;43.97;;;;;;;-146.58;100.00;69501.63;5031058;28;20411;-64
2024/01/18 04:51:24;;;;;;;64.88;42.35;;;;;;;-146.58;100.00;69501.63;5032653;28;20063;-64
2024/01/18 04:53:50;;;;;;;64.95;43.72;;;;;;;-146.58;100.00;69501.63;5030223;28;20865;-64
2024/01/18 04:56:15;;;;;;;67.28;43.88;;;;;;;-146.58;100.00;69501.63;5032299;28;20029;-64
2024/01/18 04:58:41;;;;;;;60.90;40.97;;;;;;;-146.58;100.00;69501.63;5030794;28;20021;-64
2024/01/18 05:01:07;;;;;;;56.80;39.70;;;;;;;-146.58;100.00;69501.63;5032114;28;20033;-66
2024/01/18 05:03:32;;;;;;;62.80;38.08;;;;;;;-146.58;100.00;69501.63;5030439;28;20030;-64
2024/01/18 05:05:57;;;;;;;56.30;37.92;;;;;;;-146.58;100.00;69501.63;5032074;28;20014;-67
2024/01/18 05:08:23;;;;;;;47.53;34.28;;;;;;;-146.58;100.00;69501.63;5031891;28;20025;-67
2024/01/18 05:10:49;;;;;;;58.10;37.85;;;;;;;-146.58;100.00;69501.63;5030731;28;20096;-65
2024/01/18 05:13:15;;;;;;;60.05;39.65;;;;;;;-146.58;100.00;69501.63;5031884;28;20017;-64
2024/01/18 05:15:40;;;;;;;52.00;35.50;;;;;;;-146.58;100.00;69501.63;5029401;28;20041;-63
2024/01/18 05:18:08;;;;;;;61.70;40.20;;;;;;;-146.58;100.00;69501.63;5031675;28;20025;-63
2024/01/18 05:20:34;;;;;;;36.30;28.20;;;;;;;-146.58;100.00;69501.63;5030106;28;20095;-63
2024/01/18 05:22:59;;;;;;;61.08;39.15;;;;;;;-146.58;100.00;69501.63;5030260;28;20051;-63
2024/01/18 05:25:24;;;;;;;58.05;36.78;;;;;;;-146.58;100.00;69501.63;5029736;28;20052;-59
2024/01/18 05:27:50;;;;;;;52.00;35.90;;;;;;;-146.58;100.00;69501.63;5031457;28;20033;-59
2024/01/18 05:30:15;;;;;;;59.47;37.53;;;;;;;-146.58;100.00;69501.63;5030231;28;20041;-59
2024/01/18 05:32:41;;;;;;;52.67;36.67;;;;;;;-146.58;100.00;69501.63;5031308;28;20021;-59
2024/01/18 05:35:06;;;;;;;62.97;43.00;;;;;;;-146.58;100.00;69501.63;5029752;28;20038;-59
2024/01/18 05:37:32;;;;;;;57.80;41.00;;;;;;;-146.58;100.00;69501.63;5030686;28;20056;-59
2024/01/18 05:39:57;;;;;;;60.83;37.53;;;;;;;-146.58;100.00;69501.63;5029870;28;20091;-59
2024/01/18 05:42:23;;;;;;;54.75;40.70;;;;;;;-146.58;100.00;69501.63;5031644;28;20021;-59
2024/01/18 05:44:49;;;;;;;67.70;39.92;;;;;;;-146.58;100.00;69501.63;5029987;28;20033;-58
2024/01/18 05:47:15;;;;;;;61.03;40.72;;;;;;;-146.58;100.00;69501.63;5031152;28;20025;-59
2024/01/18 05:49:40;;;;;;;51.88;37.67;;;;;;;-146.58;100.00;69501.63;5029732;28;20660;-58
2024/01/18 05:52:06;;;;;;;56.53;38.33;;;;;;;-146.58;100.00;69501.63;5031401;28;20029;-59
2024/01/18 05:54:33;;;;;;;55.03;38.05;;;;;;;-146.58;100.00;69501.63;5029307;28;20037;-59
2024/01/18 05:57:02;;;;;;;54.80;37.97;;;;;;;-146.58;100.00;69501.63;5031446;28;20087;-58
2024/01/18 05:59:30;;;;;;;;;;;;;;;-146.58;100.00;69501.63;5030459;28;20045;-59
2024/01/18 06:01:56;;;;;;;;;;;;;;;-146.58;100.00;69501.63;5031540;28;19909;-59
2024/01/18 06:04:21;;;;;;;52.35;36.58;;;;;;;-146.58;100.00;69501.63;5029645;28;19963;-59
2024/01/18 06:06:46;;;;;;;58.63;39.35;;;;;;;-146.58;100.00;69501.63;5026914;28;20021;-59
2024/01/18 06:09:16;;;;;;;55.70;38.53;;;;;;;-146.58;100.00;69501.63;5028189;28;20049;-58
2024/01/18 06:11:45;;;;;;;58.72;36.60;;;;;;;-146.58;100.00;69501.63;5029270;28;20068;-59
2024/01/18 06:14:11;;;;;;;;;;;;;;;-146.58;100.00;69501.63;5026675;28;20124;-59
2024/01/18 06:16:36;;;;;;;61.05;41.63;;;;;;;-146.58;100.00;69501.63;5028187;28;20008;-59
2024/01/18 06:19:02;;;;;;;63.83;38.75;;;;;;;-146.58;100.00;69501.63;5028283;28;20029;-59
2024/01/18 06:21:27;;;;;;;63.15;39.42;;;;;;;-146.58;100.00;69501.63;5029732;28;20503;-59
2024/01/18 06:23:53;;;;;;;68.22;45.65;;;;;;;-146.58;100.00;69501.63;5027688;28;20095;-59
2024/01/18 06:26:18;;;;;;;65.30;41.80;;;;;;;-146.58;100.00;69501.63;5029796;28;20472;-58
2024/01/18 06:28:44;;;;;;;56.22;38.33;;;;;;;-146.58;100.00;69501.63;5051840;28;20115;-59
2024/01/18 06:31:09;;;;;;;67.03;40.08;;;;;;;-146.58;100.00;69501.63;5029249;28;20045;-59
2024/01/18 06:33:35;;;;;;;59.03;39.55;;;;;;;-146.58;100.00;69501.63;5027746;28;20033;-59
2024/01/18 06:36:01;;;;;;;60.13;39.60;;;;;;;-146.58;100.00;69501.63;5030002;28;20010;-59
2024/01/18 06:38:26;;;;;;;53.88;37.30;;;;;;;-146.58;100.00;69501.63;5028645;28;20079;-59
2024/01/18 06:40:51;;;;;;;50.10;37.53;;;;;;;-146.58;100.00;69501.63;5030591;28;20329;-59
2024/01/18 06:43:17;;;;;;;50.13;35.83;;;;;;;-146.58;100.00;69501.63;5029117;28;20021;-59
2024/01/18 06:45:42;;;;;;;57.72;38.17;;;;;;;-146.58;100.00;69501.63;5026540;28;20244;-59
2024/01/18 06:48:08;;;;;;;60.15;38.15;;;;;;;-146.58;100.00;69501.63;5030229;28;20036;-59
2024/01/18 06:50:35;;;;;;;58.83;38.70;;;;;;;-146.58;100.00;69501.63;5029255;28;20038;-59
2024/01/18 06:53:02;;;;;;;59.95;38.70;;;;;;;-146.58;100.00;69501.63;5029919;28;20060;-59
2024/01/18 06:55:28;;;;;;;51.45;39.00;;;;;;;-146.58;100.00;69501.63;5029138;28;20407;-59
2024/01/18 06:57:53;;;;;;;62.88;39.33;;;;;;;-146.58;100.00;69501.63;5030336;28;20029;-59
2024/01/18 07:00:19;;;;;;;56.65;37.90;;;;;;;-146.58;100.00;69501.63;5028745;28;20041;-59
2024/01/18 07:02:48;;;;;;;60.15;37.60;;;;;;;-146.58;100.00;69501.63;5030269;28;20033;-59
2024/01/18 07:05:13;;;;;;;52.35;39.13;;;;;;;-146.58;100.00;69501.63;5026889;28;20578;-59
2024/01/18 07:07:39;;;;;;;62.80;36.15;;;;;;;-146.58;100.00;69501.63;5029555;28;20079;-59
2024/01/18 07:10:06;;;;;;;57.10;35.75;;;;;;;-146.58;100.00;69501.63;5026980;28;20041;-58
2024/01/18 07:12:32;;;;;;;49.22;34.88;;;;;;;-146.58;100.00;69501.63;5028821;28;20025;-59
2024/01/18 07:14:58;;;;;;;49.58;34.33;;;;;;;-146.58;100.00;69501.63;5028408;28;20037;-58
2024/01/18 07:17:23;;;;;;;49.03;34.97;;;;;;;-146.58;100.00;69501.63;5030286;28;20512;-58
2024/01/18 07:19:49;;;;;;;53.08;36.20;;;;;;;-146.58;100.00;69501.63;5028835;28;20400;-58
2024/01/18 07:22:15;;;;;;;55.05;35.53;;;;;;;-146.58;100.00;69501.63;5029106;28;20025;-59
2024/01/18 07:24:40;;;;;;;57.17;35.72;;;;;;;-146.58;100.00;69501.63;5028588;28;20037;-58
2024/01/18 07:27:09;;;;;;;45.65;34.35;;;;;;;-146.58;100.00;69501.63;5030364;28;20025;-58
2024/01/18 07:29:37;;;;;;;53.92;34.97;;;;;;;-146.58;100.00;69501.63;5028451;28;20044;-58
2024/01/18 07:32:03;;;;;;;38.95;29.73;;;;;;;-146.58;100.00;69501.63;5030249;28;20033;-58
2024/01/18 07:34:28;;;;;;;44.13;31.27;;;;;;;-146.58;100.00;69501.63;5028888;28;20037;-58
2024/01/18 07:36:55;;;;;;;43.65;33.58;;;;;;;-146.58;100.00;69501.63;5025599;28;20114;-59
2024/01/18 07:39:20;;;;;;;46.47;32.50;;;;;;;-146.58;100.00;69501.63;5028714;28;20045;-58
2024/01/18 07:41:46;;;;;;;48.33;34.40;;;;;;;-146.58;100.00;69501.63;5029964;28;20024;-58
2024/01/18 07:44:11;;;;;;;51.35;37.03;;;;;;;-146.58;100.00;69501.63;5028039;28;20087;-58
2024/01/18 07:46:37;;;;;;;54.65;35.90;;;;;;;-146.58;100.00;69501.63;5032192;28;20022;-58
2024/01/18 07:49:03;;;;;;;51.38;36.17;;;;;;;-146.58;100.00;69501.63;5032134;28;20061;-58
2024/01/18 07:51:30;;;;;;;54.17;37.95;;;;;;;-146.58;100.00;69501.63;5033379;28;20025;-58
2024/01/18 07:53:55;;;;;;;46.90;35.88;;;;;;;-146.58;100.00;69501.63;5029609;28;20392;-58
2024/01/18 07:56:21;;;;;;;54.60;36.63;;;;;;;-146.58;100.00;69501.63;5033341;28;20029;-58
2024/01/18 07:58:47;;;;;;;49.72;34.65;;;;;;;-146.58;100.00;69501.63;5031209;28;20528;-58
2024/01/18 08:01:15;;;;;;;60.10;40.25;;;;;;;-146.58;100.00;69501.63;5033211;28;20048;-59
2024/01/18 08:03:41;;;;;;;60.53;40.17;;;;;;;-146.58;100.00;69501.63;5031535;28;20499;-58
2024/01/18 08:06:06;;;;;;;55.28;38.28;;;;;;;-146.58;100.00;69501.63;5032138;28;20041;-58
2024/01/18 08:08:32;;;;;;;48.97;37.78;;;;;;;-146.58;100.00;69501.63;5031705;28;20028;-58
2024/01/18 08:10:57;;;;;;;52.03;34.28;;;;;;;-146.58;100.00;69501.63;5033346;28;20018;-58
2024/01/18 08:13:22;;;;;;;54.53;35.53;;;;;;;-146.58;100.00;69501.63;5032582;28;20029;-58
2024/01/18 08:15:48;;;;;;;66.68;37.42;;;;;;;-146.58;100.00;69501.63;5009676;28;20038;-58
2024/01/18 08:18:15;;;;;;;55.30;35.80;;;;;;;-146.58;100.00;69501.63;5013469;28;20436;-58
2024/01/18 08:20:40;;;;;;;48.40;34.08;;;;;;;-146.58;100.00;69501.63;5030104;28;20400;-58
2024/01/18 08:23:06;;;;;;;50.70;34.90;;;;;;;-146.58;100.00;69501.63;5032737;28;20021;-58
2024/01/18 08:25:32;;;;;;;45.85;36.20;;;;;;;-146.58;100.00;69501.63;5031524;28;20038;-58
2024/01/18 08:27:57;;;;;;;48.03;35.40;;;;;;;-146.58;100.00;69501.63;5032939;28;20524;-58
2024/01/18 08:30:22;;;;;;;50.88;34.95;;;;;;;-146.58;100.00;69501.63;5031169;28;20124;-58
2024/01/18 08:32:48;;;;;;;54.80;36.80;;;;;;;-146.58;100.00;69501.63;5032778;28;20026;-58
2024/01/18 08:35:13;;;;;;;51.65;36.85;;;;;;;-146.58;100.00;69501.63;5031436;28;20041;-59
2024/01/18 08:37:39;;;;;;;53.63;38.00;;;;;;;-146.58;100.00;69501.63;5032097;28;20080;-58
2024/01/18 08:40:05;;;;;;;60.42;38.90;;;;;;;-146.58;100.00;69501.63;5031403;28;20092;-58
2024/01/18 08:42:30;;;;;;;61.05;40.40;;;;;;;-146.58;100.00;69501.63;5032841;28;20025;-58
2024/01/18 08:44:56;;;;;;;50.22;37.63;;;;;;;-146.58;100.00;69501.63;5030897;28;20725;-58
2024/01/18 08:47:22;;;;;;;58.50;41.70;;;;;;;-146.58;100.00;69501.63;5032744;28;20069;-59
2024/01/18 08:49:48;;;;;;;54.72;40.22;;;;;;;-146.58;100.00;69501.63;5030829;28;20041;-58
2024/01/18 08:52:13;;;;;;;51.92;39.83;;;;;;;-146.58;100.00;69501.63;5032032;28;20055;-59
2024/01/18 08:54:38;;;;;;;69.65;42.42;;;;;;;-146.58;100.00;69501.63;5030693;28;20040;-59
2024/01/18 08:57:04;;;;;;;54.63;39.72;;;;;;;-146.58;100.00;69501.63;5030341;28;20022;-59
2024/01/18 08:59:29;;;;;;;53.85;39.25;;;;;;;-146.58;100.00;69501.63;5030690;28;20525;-58
2024/01/18 09:01:55;;;;;;;53.90;39.45;;;;;;;-146.58;100.00;69501.63;5031838;28;20026;-58
2024/01/18 09:04:20;;;;;;;50.22;36.13;;;;;;;-146.58;100.00;69501.63;5030915;28;20045;-58
2024/01/18 09:06:46;;;;;;;57.70;37.30;;;;;;;-146.58;100.00;69501.63;5031742;28;20044;-58
2024/01/18 09:09:11;;;;;;;53.17;41.17;;;;;;;-146.58;100.00;69501.63;5030780;28;20037;-59
2024/01/18 09:11:38;;;;;;;49.75;33.00;;;;;;;-146.58;100.00;69501.63;5031930;28;20500;-59
2024/01/18 09:14:03;;;;;;;49.58;35.15;;;;;;;-146.58;100.00;69501.63;5030260;28;20550;-59
2024/01/18 09:16:30;;;;;;;45.70;34.05;;;;;;;-146.58;100.00;69501.63;5032029;28;20029;-59
2024/01/18 09:18:56;;;;;;;42.50;31.02;;;;;;;-146.58;100.00;69501.63;5030688;28;20045;-59
2024/01/18 09:21:21;;;;;;;38.22;30.20;;;;;;;-146.58;100.00;69501.63;5031744;28;20033;-59
2024/01/18 09:23:47;;;;;;;44.40;28.10;;;;;;;-146.58;100.00;69501.63;5030351;28;20033;-58
2024/01/18 09:26:12;;;;;;;47.78;29.20;;;;;;;-146.58;100.00;69501.63;5031705;28;20358;-59
2024/01/18 09:28:37;;;;;;;32.35;25.45;;;;;;;-146.58;100.00;69501.63;5029539;28;20026;-59
2024/01/18 09:31:03;;;;;;;32.88;25.15;;;;;;;-146.58;100.00;69501.63;5031871;28;20388;-59
2024/01/18 09:33:28;;;;;;;26.92;22.30;;;;;;;-146.58;100.00;69501.63;5030334;28;20061;-59
2024/01/18 09:35:54;;;;;;;28.77;20.00;;;;;;;-146.58;100.00;69501.63;5031019;28;20052;-59
2024/01/18 09:38:19;;;;;;;59.65;23.88;;;;;;;-146.58;100.00;69501.63;5031631;28;20032;-60
2024/01/18 09:40:45;;;;;;;24.30;20.13;;;;;;;-146.58;100.00;69501.63;5030071;28;20460;-59
2024/01/18 09:43:15;;;;;;;19.48;16.42;;;;;;;-146.58;100.00;69501.63;5030947;28;20032;-59
2024/01/18 09:45:45;;;;;;;31.90;20.70;;;;;;;-146.58;100.00;69501.63;5028139;28;20041;-59
2024/01/18 09:48:12;;;;;;;23.73;17.50;;;;;;;-146.58;100.00;69501.63;5030218;28;20397;-59
2024/01/18 09:50:45;;;;;;;20.58;16.83;;;;;;;-146.58;100.00;69501.63;5028289;28;20041;-59
2024/01/18 09:53:11;;;;;;;25.27;17.80;;;;;;;-146.58;100.00;69501.63;5030517;28;20487;-59
2024/01/18 09:55:37;;;;;;;16.48;14.80;;;;;;;-146.58;100.00;69501.63;5028574;28;20061;-59
2024/01/18 09:58:08;;;;;;;26.48;15.25;;;;;;;-146.58;100.00;69501.63;5029983;28;20105;-59
2024/01/18 10:00:37;;;;;;;20.98;14.82;;;;;;;-146.58;100.00;69501.63;5029431;28;20136;-59
2024/01/18 10:03:03;;;;;;;18.35;14.55;;;;;;;-146.58;100.00;69501.63;5031343;28;20598;-59
2024/01/18 10:05:29;;;;;;;15.93;11.88;;;;;;;-146.58;100.00;69501.63;5029520;28;20041;-59
2024/01/18 10:07:54;;;;;;;14.32;10.38;;;;;;;-146.58;100.00;69501.63;5030811;28;20384;-59
2024/01/18 10:10:20;;;;;;;12.75;11.55;;;;;;;-146.58;100.00;69501.63;5029825;28;20053;-59
2024/01/18 10:12:47;;;;;;;26.45;18.30;;;;;;;-146.58;100.00;69501.63;5030311;28;20022;-59
2024/01/18 10:15:28;;;;;;;17.30;10.57;;;;;;;-146.58;100.00;69501.63;5029508;28;20120;-59
2024/01/18 10:17:54;;;;;;;17.05;11.38;;;;;;;-146.58;100.00;69501.63;5030838;28;20044;-59
2024/01/18 10:20:22;;;;;;;8.75;7.63;;;;;;;-146.58;100.00;69501.63;5029285;28;20029;-59
2024/01/18 10:22:47;;;;;;;10.25;8.80;;;;;;;-146.58;100.00;69501.63;5030340;28;20083;-59
2024/01/18 10:25:13;;;;;;;10.55;9.13;;;;;;;-146.58;100.00;69501.63;5029134;28;20037;-59
2024/01/18 10:27:43;;;;;;;9.07;7.70;;;;;;;-146.58;100.00;69501.63;5028961;28;20032;-59
2024/01/18 10:30:11;;;;;;;13.77;7.68;;;;;;;-146.58;100.00;69501.63;5028653;28;20048;-58
2024/01/18 10:32:39;;;;;;;9.35;8.10;;;;;;;-146.58;100.00;69501.63;5030638;28;20026;-59
2024/01/18 10:35:05;;;;;;;11.40;6.40;;;;;;;-146.58;100.00;69501.63;5028887;28;20096;-59
2024/01/18 10:37:31;;;;;;;7.15;6.30;;;;;;;-146.58;100.00;69501.63;5030812;28;20488;-59
2024/01/18 10:39:56;;;;;;;10.82;6.32;;;;;;;-146.58;100.00;69501.63;5029124;28;20041;-58
2024/01/18 10:42:22;;;;;;;17.40;6.43;;;;;;;-146.58;100.00;69501.63;5030371;28;20044;-58
2024/01/18 10:44:50;;;;;;;13.20;8.57;;;;;;;-146.58;100.00;69501.63;5029122;28;20033;-58
2024/01/18 10:47:15;;;;;;;14.83;8.70;;;;;;;-146.58;100.00;69501.63;5030480;28;20127;-58
2024/01/18 10:49:43;;;;;;;10.43;6.18;;;;;;;-146.58;100.00;69501.63;5028662;28;20189;-59